Terminal Aerodrome Forecast
Issued by NWS

Home | Current Version | Previous Version | Text Only | Print | Product List | Glossary On
Versions: 1 2 3 4 5 6 7 8 9 10 11 12 13 14 15
000
FTUS42 KMLB 271959 AAA
TAFISM
TAF AMD
KISM 271959Z 2720/2818 09011KT P6SM VCTS SCT035CB BKN050 BKN250
      TEMPO 2720/2721 3SM TSRA BKN035CB
     FM280000 05007KT P6SM FEW030 SCT070 SCT250
     FM281400 07009KT P6SM SCT025 BKN050=

USA.gov is the U.S. government's official web portal to all federal, state and local government web resources and services.